Terminal Aerodrome Forecast
Issued by NWS

Home | Current Version | Previous Version | Text Only | Print | Product List | Glossary On
Versions: 1 2 3 4 5 6 7 8 9 10 11 12 13 14
000
FTAK31 PAJN 071700
TAFASI
TAF
PASI 071723Z 0718/0818 29005KT P6SM SCT012 SCT025 BKN200
     FM072000 27009KT P6SM SCT050 BKN100
     FM080000 30010KT P6SM SCT040 OVC060
     FM081000 VRB04KT P6SM VCSH BKN035 OVC060
     FM081500 29006KT P6SM BKN050 BKN080=

USA.gov is the U.S. government's official web portal to all federal, state and local government web resources and services.